createdAt,value
2019-05-05T04:00:39.427Z,22.5
2019-05-05T04:04:08.412Z,28.125
2019-05-05T04:07:38.781Z,28.125
2019-05-05T04:11:09.102Z,33.75
2019-05-05T04:14:38.878Z,33.75
2019-05-05T04:18:07.802Z,33.75
2019-05-05T04:21:38.722Z,33.75
2019-05-05T04:25:07.667Z,39.375
2019-05-05T04:28:36.617Z,39.375
2019-05-05T04:32:05.547Z,45
2019-05-05T04:35:34.491Z,45
2019-05-05T04:39:03.736Z,45
2019-05-05T04:42:33.504Z,50.625
2019-05-05T04:46:01.358Z,50.625
2019-05-05T04:49:30.285Z,50.625
2019-05-05T04:52:58.231Z,56.25
2019-05-05T04:56:29.815Z,56.25
2019-05-05T04:59:57.128Z,56.25
2019-05-05T05:03:26.104Z,56.25
2019-05-05T05:06:55.068Z,61.875
2019-05-05T05:10:24.148Z,61.875
2019-05-05T05:13:51.949Z,61.875
2019-05-05T05:17:24.685Z,61.875
2019-05-05T05:20:51.801Z,61.875
2019-05-05T05:24:20.744Z,61.875
2019-05-05T05:27:49.678Z,67.5
2019-05-05T05:31:18.630Z,67.5
2019-05-05T05:34:47.606Z,67.5
2019-05-05T05:38:16.656Z,67.5
2019-05-05T05:41:47.686Z,67.5
2019-05-05T05:45:18.277Z,67.5
2019-05-05T05:48:47.315Z,67.5
2019-05-05T05:52:20.326Z,73.125
2019-05-05T05:55:49.541Z,73.125
2019-05-05T05:59:18.526Z,73.125
2019-05-05T06:02:47.491Z,73.125
2019-05-05T06:06:17.453Z,73.125
2019-05-05T06:09:46.434Z,73.125
2019-05-05T06:13:16.495Z,73.125
2019-05-05T06:16:45.436Z,73.125
2019-05-05T06:20:14.621Z,78.75
2019-05-05T06:23:44.529Z,78.75
2019-05-05T06:27:14.237Z,78.75
2019-05-05T06:30:41.538Z,78.75
2019-05-05T06:34:13.770Z,78.75
2019-05-05T06:37:43.580Z,78.75
2019-05-05T06:41:15.055Z,78.75
2019-05-05T06:44:44.895Z,84.375
2019-05-05T06:48:15.081Z,84.375
2019-05-05T06:51:44.134Z,84.375
2019-05-05T06:55:13.957Z,84.375
2019-05-05T06:58:41.552Z,84.375
2019-05-05T07:02:10.684Z,90
2019-05-05T20:23:15.085Z,0
2019-05-05T20:26:45.121Z,0
2019-05-05T20:30:16.684Z,0
2019-05-05T20:33:46.659Z,0
2019-05-05T20:37:17.627Z,0
2019-05-05T20:42:23.908Z,0
2019-05-05T20:46:13.468Z,0
2019-05-05T20:49:44.557Z,0
2019-05-05T20:53:16.431Z,0
2019-05-05T20:56:47.363Z,0
2019-05-05T21:00:19.292Z,0
2019-05-05T21:03:49.258Z,0
2019-05-05T21:07:18.198Z,0
2019-05-05T21:10:48.194Z,0
2019-05-05T21:14:31.852Z,0
2019-05-05T21:17:54.061Z,0
2019-05-05T21:21:22.048Z,0
2019-05-05T21:24:51.003Z,0
2019-05-05T21:28:24.066Z,0
2019-05-05T21:31:54.573Z,0
2019-05-05T21:35:23.972Z,0
2019-05-05T21:38:54.488Z,0
2019-05-05T21:42:24.097Z,0
2019-05-05T21:45:53.729Z,0
2019-05-05T21:49:23.781Z,0
2019-05-05T21:52:53.646Z,0
2019-05-05T21:56:22.050Z,0
2019-05-05T21:59:58.738Z,0
